createdAt,value
2019-05-07T00:01:17.772Z,10.63
2019-05-07T00:03:46.787Z,7.40
2019-05-07T00:06:16.222Z,11.48
2019-05-07T00:08:45.899Z,12.63
2019-05-07T00:11:15.131Z,11.65
2019-05-07T00:13:44.616Z,10.13
2019-05-07T00:16:14.300Z,15.60
2019-05-07T00:18:43.893Z,8.20
2019-05-07T00:21:13.060Z,14.05
2019-05-07T00:23:43.306Z,10.60
2019-05-07T00:26:13.325Z,12.95
2019-05-07T00:28:43.369Z,9.35
2019-05-07T00:31:13.202Z,6.65
2019-05-07T00:33:43.335Z,8.78
2019-05-07T00:36:37.292Z,8.75
2019-05-07T00:39:15.831Z,9.88
2019-05-07T00:41:54.751Z,13.08
2019-05-07T00:44:24.394Z,12.03
2019-05-07T00:46:53.595Z,9.25
2019-05-07T00:49:24.672Z,8.10
2019-05-07T00:51:54.157Z,9.78
2019-05-07T00:54:23.862Z,10.20
2019-05-07T00:56:53.215Z,10.43
2019-05-07T00:59:22.687Z,9.55
2019-05-07T01:01:52.927Z,11.57
2019-05-07T01:04:22.907Z,14.53
2019-05-07T01:06:53.165Z,9.40
2019-05-07T01:09:23.016Z,13.83
2019-05-07T01:11:52.632Z,11.45
2019-05-07T01:14:22.777Z,9.20
2019-05-07T01:16:52.947Z,11.63
2019-05-07T01:19:22.455Z,13.20
2019-05-07T01:21:52.614Z,13.68
2019-05-07T01:24:23.298Z,11.15
2019-05-07T01:26:53.099Z,11.93
2019-05-07T01:29:22.742Z,9.48
2019-05-07T01:31:58.080Z,10.85
2019-05-07T01:34:55.673Z,10.98
2019-05-07T01:37:25.106Z,13.60
2019-05-07T01:39:54.683Z,10.60
2019-05-07T01:42:23.941Z,8.43
2019-05-07T01:44:53.822Z,11.50
2019-05-07T01:47:23.708Z,10.85
2019-05-07T01:49:55.051Z,13.53
2019-05-07T01:52:24.914Z,11.93
2019-05-07T01:54:54.062Z,9.98
2019-05-07T01:57:23.598Z,16.40
2019-05-07T01:59:54.213Z,13.08
2019-05-07T02:02:29.410Z,10.10
2019-05-07T02:05:05.047Z,16.42
2019-05-07T02:07:38.833Z,17.65
2019-05-07T02:10:34.893Z,9.90
2019-05-07T02:13:04.264Z,13.70
2019-05-07T02:15:33.767Z,12.73
2019-05-07T02:18:03.201Z,10.32
2019-05-07T02:20:32.546Z,13.50
2019-05-07T02:23:02.808Z,10.88
2019-05-07T02:25:32.758Z,12.83
2019-05-07T02:28:02.732Z,11.85
2019-05-07T02:30:34.947Z,12.70
2019-05-07T02:33:03.965Z,13.88
2019-05-07T02:35:33.756Z,11.63
2019-05-07T02:38:25.053Z,11.85
2019-05-07T02:41:06.489Z,11.25
2019-05-07T02:43:36.024Z,12.80
2019-05-07T02:46:31.068Z,11.97
2019-05-07T02:49:16.272Z,12.35
2019-05-07T02:52:04.552Z,11.85
2019-05-07T02:54:53.965Z,9.63
2019-05-07T02:57:24.125Z,14.35
2019-05-07T02:59:54.599Z,14.50
2019-05-07T03:02:24.451Z,13.33
2019-05-07T03:04:53.730Z,16.45
2019-05-07T03:07:24.253Z,11.43
2019-05-07T03:09:54.113Z,17.62
2019-05-07T03:12:23.911Z,10.80
2019-05-07T03:14:54.126Z,11.85
2019-05-07T03:17:24.734Z,13.50
2019-05-07T03:19:55.497Z,13.35
2019-05-07T03:22:24.731Z,11.38
2019-05-07T03:25:02.955Z,12.07
2019-05-07T03:27:33.805Z,11.88
2019-05-07T03:30:19.154Z,14.15
2019-05-07T03:32:56.599Z,10.50
2019-05-07T03:35:47.601Z,13.70
2019-05-07T03:38:16.830Z,13.40
2019-05-07T03:40:46.099Z,15.27
2019-05-07T03:43:15.443Z,14.45
2019-05-07T03:45:54.168Z,11.65
2019-05-07T03:48:25.604Z,9.88
2019-05-07T03:50:54.814Z,15.08
2019-05-07T03:53:24.636Z,12.13
2019-05-07T03:55:54.272Z,14.47
2019-05-07T03:58:24.097Z,13.95
2019-05-07T04:00:53.936Z,19.05
2019-05-07T04:03:24.798Z,13.20
2019-05-07T04:05:54.447Z,12.50
2019-05-07T04:08:24.089Z,13.30
2019-05-07T04:10:53.976Z,20.37
2019-05-07T04:13:24.323Z,14.18
2019-05-07T04:15:54.057Z,14.33
2019-05-07T04:18:24.102Z,20.20
2019-05-07T04:20:54.210Z,13.10
2019-05-07T04:23:23.917Z,15.80
2019-05-07T04:26:13.095Z,13.85
2019-05-07T04:29:05.686Z,15.85
2019-05-07T04:31:38.630Z,16.50
2019-05-07T04:34:25.629Z,13.45
2019-05-07T04:36:55.053Z,15.75
2019-05-07T04:39:24.327Z,17.55
2019-05-07T04:41:53.631Z,13.78
2019-05-07T04:44:23.569Z,16.17
2019-05-07T04:46:53.282Z,13.78
2019-05-07T04:49:23.866Z,24.98
2019-05-07T04:52:15.262Z,14.07
2019-05-07T04:54:43.900Z,14.28
2019-05-07T04:57:26.100Z,17.23
2019-05-07T04:59:59.371Z,14.20
2019-05-07T05:02:37.107Z,13.13
2019-05-07T05:05:06.479Z,12.25
2019-05-07T05:07:35.829Z,19.80
2019-05-07T05:10:05.049Z,15.08
2019-05-07T05:12:33.694Z,15.20
2019-05-07T05:15:03.095Z,14.07
2019-05-07T05:17:46.747Z,17.90
2019-05-07T05:20:03.823Z,15.65
2019-05-07T05:22:42.488Z,14.43
2019-05-07T05:25:22.607Z,17.57
2019-05-07T05:27:52.397Z,14.78
2019-05-07T05:30:29.192Z,13.72
2019-05-07T05:33:01.256Z,13.45
2019-05-07T05:35:29.615Z,16.73
2019-05-07T05:37:59.050Z,22.70
2019-05-07T05:40:28.402Z,14.10
2019-05-07T05:43:04.332Z,13.93
2019-05-07T05:45:38.468Z,15.48
2019-05-07T05:48:08.665Z,19.85
2019-05-07T05:50:54.523Z,18.80
2019-05-07T05:53:35.719Z,18.75
2019-05-07T05:56:11.469Z,16.00
2019-05-07T05:59:11.956Z,16.20
2019-05-07T06:01:58.344Z,13.40
2019-05-07T06:04:38.504Z,18.03
2019-05-07T06:07:16.985Z,15.80
2019-05-07T06:10:08.551Z,20.70
2019-05-07T06:13:01.619Z,24.90
2019-05-07T06:15:48.354Z,15.90
2019-05-07T06:18:46.666Z,19.97
2019-05-07T06:21:24.136Z,14.57
2019-05-07T06:23:56.819Z,14.97
2019-05-07T06:26:26.528Z,19.17
2019-05-07T06:28:55.951Z,17.77
2019-05-07T06:31:25.198Z,23.80
2019-05-07T06:33:54.418Z,18.77
2019-05-07T06:36:24.087Z,21.10
2019-05-07T06:39:08.312Z,17.77
2019-05-07T06:42:15.306Z,25.30
2019-05-07T06:44:44.511Z,19.47
2019-05-07T06:47:14.311Z,18.50
2019-05-07T06:49:43.687Z,19.67
2019-05-07T06:52:13.088Z,19.50
2019-05-07T06:54:42.880Z,21.00
2019-05-07T06:57:13.075Z,20.30
2019-05-07T06:59:53.017Z,23.77
2019-05-07T07:02:27.020Z,19.03
2019-05-07T07:04:59.990Z,19.37
2019-05-07T07:07:37.569Z,16.93
2019-05-07T07:10:32.096Z,22.10
2019-05-07T07:13:02.429Z,19.50
2019-05-07T07:15:32.248Z,22.10
2019-05-07T07:18:03.268Z,28.32
2019-05-07T07:20:44.899Z,22.77
2019-05-07T07:23:24.507Z,19.47
2019-05-07T07:25:53.597Z,23.00
2019-05-07T07:28:23.076Z,22.40
2019-05-07T07:31:05.143Z,23.27
2019-05-07T07:33:37.512Z,21.33
2019-05-07T07:36:07.040Z,19.40
2019-05-07T07:38:41.942Z,17.60
2019-05-07T07:41:34.613Z,23.97
2019-05-07T07:44:04.636Z,18.03
2019-05-07T07:46:34.240Z,24.93
2019-05-07T07:49:10.745Z,17.53
2019-05-07T07:51:41.565Z,21.37
2019-05-07T07:54:06.073Z,20.60
2019-05-07T07:57:02.326Z,23.03
2019-05-07T07:59:57.451Z,25.97
2019-05-07T08:02:46.131Z,20.23
2019-05-07T08:05:15.485Z,19.27
2019-05-07T08:07:45.486Z,23.37
2019-05-07T08:10:15.544Z,16.07
2019-05-07T08:12:45.143Z,17.40
2019-05-07T08:15:20.975Z,23.07
2019-05-07T08:17:46.832Z,21.23
2019-05-07T08:20:22.320Z,14.10
2019-05-07T08:22:52.723Z,14.23
2019-05-07T08:25:42.590Z,14.23
2019-05-07T08:28:12.246Z,18.13
2019-05-07T08:30:43.698Z,16.90
2019-05-07T08:33:23.580Z,16.53
2019-05-07T08:36:14.356Z,21.00
2019-05-07T08:38:52.761Z,12.13
2019-05-07T08:41:22.668Z,16.87
2019-05-07T08:44:08.068Z,12.20
2019-05-07T08:46:42.215Z,32.83
2019-05-07T08:49:12.190Z,15.63
2019-05-07T08:51:42.642Z,14.67
2019-05-07T08:54:12.478Z,17.73
2019-05-07T08:56:42.585Z,14.63
2019-05-07T08:59:12.414Z,14.87
2019-05-07T09:01:43.382Z,15.60
2019-05-07T09:04:13.579Z,16.07
2019-05-07T09:06:43.208Z,13.07
2019-05-07T09:09:13.980Z,15.63
2019-05-07T09:11:43.738Z,15.23
2019-05-07T09:14:13.094Z,14.33
2019-05-07T09:16:42.877Z,12.60
2019-05-07T09:19:12.990Z,18.13
2019-05-07T09:21:43.018Z,14.07
2019-05-07T09:24:12.539Z,17.60
2019-05-07T09:27:02.659Z,14.13
2019-05-07T09:29:51.881Z,14.47
2019-05-07T09:32:32.642Z,15.47
2019-05-07T09:35:03.243Z,14.17
2019-05-07T09:37:33.301Z,11.13
2019-05-07T09:40:03.081Z,9.73
2019-05-07T09:42:33.344Z,12.13
2019-05-07T09:45:03.089Z,13.97
2019-05-07T09:47:32.728Z,14.17
2019-05-07T09:50:07.174Z,12.97
2019-05-07T09:52:33.275Z,13.07
2019-05-07T09:55:13.777Z,11.93
2019-05-07T09:57:34.796Z,10.37
2019-05-07T10:00:04.414Z,11.50
2019-05-07T10:02:33.820Z,13.30
2019-05-07T10:05:03.259Z,12.70
2019-05-07T10:07:33.202Z,8.67
2019-05-07T10:10:03.365Z,9.80
2019-05-07T10:12:52.536Z,10.00
2019-05-07T10:15:22.574Z,16.43
2019-05-07T10:18:01.888Z,12.40
2019-05-07T10:20:32.780Z,10.17
2019-05-07T10:23:02.546Z,9.13
2019-05-07T10:25:40.872Z,9.20
2019-05-07T10:28:12.499Z,11.80
2019-05-07T10:30:42.843Z,14.33
2019-05-07T10:33:12.531Z,12.33
2019-05-07T10:35:43.454Z,9.37
2019-05-07T10:38:13.160Z,10.37
2019-05-07T10:40:42.779Z,8.80
2019-05-07T10:43:12.516Z,7.27
2019-05-07T10:46:02.264Z,10.23
2019-05-07T10:48:43.061Z,11.40
2019-05-07T10:51:12.662Z,10.10
2019-05-07T10:53:42.533Z,9.07
2019-05-07T10:56:12.411Z,8.40
2019-05-07T10:58:42.111Z,8.17
2019-05-07T11:01:14.377Z,13.30
2019-05-07T11:03:43.990Z,9.50
2019-05-07T11:06:13.601Z,5.40
2019-05-07T11:08:44.176Z,8.23
2019-05-07T11:11:14.194Z,6.43
2019-05-07T11:13:43.815Z,4.93
2019-05-07T11:16:15.824Z,5.80
2019-05-07T11:18:47.621Z,8.03
2019-05-07T11:21:19.860Z,7.80
2019-05-07T11:23:49.542Z,5.97
2019-05-07T11:26:19.618Z,6.00
2019-05-07T11:28:49.731Z,8.67
2019-05-07T11:31:19.615Z,9.23
2019-05-07T11:33:49.351Z,5.60
2019-05-07T11:36:19.411Z,7.77
2019-05-07T11:38:48.956Z,9.07
2019-05-07T11:41:22.899Z,8.50
2019-05-07T11:44:17.209Z,10.80
2019-05-07T11:47:04.452Z,6.73
2019-05-07T11:49:54.164Z,9.77
2019-05-07T11:52:29.242Z,7.83
2019-05-07T11:54:58.811Z,9.60
2019-05-07T11:57:28.871Z,11.63
2019-05-07T11:59:58.519Z,4.90
2019-05-07T12:02:28.350Z,11.47
2019-05-07T12:04:58.009Z,12.93
2019-05-07T12:07:27.614Z,10.97
2019-05-07T12:09:57.119Z,7.43
2019-05-07T12:12:26.721Z,5.43
2019-05-07T12:14:56.841Z,12.07
2019-05-07T12:17:26.706Z,10.37
2019-05-07T12:19:56.269Z,8.83
2019-05-07T12:22:43.652Z,8.77
2019-05-07T12:25:13.873Z,8.50
2019-05-07T12:27:43.520Z,8.20
2019-05-07T12:30:16.049Z,4.13
2019-05-07T12:33:20.094Z,11.97
2019-05-07T12:35:49.799Z,6.80
2019-05-07T12:38:21.788Z,5.77
2019-05-07T12:40:52.372Z,10.07
2019-05-07T12:43:22.418Z,6.43
2019-05-07T12:45:52.516Z,8.17
2019-05-07T12:48:22.297Z,8.67
2019-05-07T12:50:52.257Z,7.10
2019-05-07T12:53:52.392Z,5.17
2019-05-07T12:56:21.466Z,5.27
2019-05-07T12:58:51.804Z,8.67
2019-05-07T13:01:32.815Z,9.37
2019-05-07T13:04:11.995Z,4.80
2019-05-07T13:07:03.777Z,6.17
2019-05-07T13:09:33.518Z,7.00
2019-05-07T13:12:03.511Z,5.93
2019-05-07T13:14:33.082Z,5.63
2019-05-07T13:17:03.004Z,6.20
2019-05-07T13:19:33.159Z,5.80
2019-05-07T13:22:02.451Z,9.40
2019-05-07T13:24:32.321Z,5.10
2019-05-07T13:27:03.291Z,7.47
2019-05-07T13:29:33.135Z,6.10
2019-05-07T13:32:03.922Z,6.43
2019-05-07T13:34:34.257Z,5.80
2019-05-07T13:37:10.134Z,6.30
2019-05-07T13:39:49.266Z,7.00
2019-05-07T13:42:37.046Z,6.00
2019-05-07T13:45:18.335Z,7.40
2019-05-07T13:47:51.778Z,6.40
2019-05-07T13:50:22.615Z,12.93
2019-05-07T13:52:52.659Z,5.03
2019-05-07T13:55:22.215Z,7.43
2019-05-07T13:57:52.394Z,6.77
2019-05-07T14:00:29.255Z,7.13
2019-05-07T14:02:59.722Z,10.57
2019-05-07T14:05:29.308Z,9.00
2019-05-07T14:07:59.439Z,6.70
2019-05-07T14:10:29.719Z,9.07
2019-05-07T14:13:08.510Z,12.30
2019-05-07T14:15:32.038Z,8.37
2019-05-07T14:18:02.274Z,5.67
2019-05-07T14:20:33.066Z,8.47
2019-05-07T14:23:02.918Z,6.70
2019-05-07T14:25:32.631Z,5.30
2019-05-07T14:28:02.400Z,7.00
2019-05-07T14:30:32.834Z,4.13
2019-05-07T14:33:09.166Z,5.47
2019-05-07T14:35:46.915Z,5.20
2019-05-07T14:38:44.755Z,7.40
2019-05-07T14:41:14.328Z,6.80
2019-05-07T14:43:48.901Z,3.53
2019-05-07T14:46:18.550Z,6.23
2019-05-07T14:48:52.047Z,5.77
2019-05-07T14:51:22.190Z,6.37
2019-05-07T14:53:51.729Z,5.00
2019-05-07T14:56:23.208Z,6.47
2019-05-07T14:58:53.002Z,4.60
2019-05-07T15:01:22.546Z,6.07
2019-05-07T15:03:52.797Z,6.90
2019-05-07T15:06:22.408Z,6.50
2019-05-07T15:08:52.295Z,6.50
2019-05-07T15:11:22.018Z,6.90
2019-05-07T15:13:52.208Z,5.97
2019-05-07T15:16:22.499Z,6.47
2019-05-07T15:18:53.983Z,6.10
2019-05-07T15:21:23.713Z,6.53
2019-05-07T15:23:56.388Z,5.10
2019-05-07T15:26:26.131Z,6.97
2019-05-07T15:29:07.172Z,6.70
2019-05-07T15:31:57.702Z,5.70
2019-05-07T15:34:27.238Z,6.73
2019-05-07T15:36:57.379Z,5.37
2019-05-07T15:39:26.994Z,5.37
2019-05-07T15:41:56.759Z,8.63
2019-05-07T15:44:26.949Z,5.63
2019-05-07T15:46:58.276Z,8.10
2019-05-07T15:49:28.258Z,6.90
2019-05-07T15:52:01.779Z,10.27
2019-05-07T15:54:32.565Z,4.57
2019-05-07T15:57:04.743Z,7.20
2019-05-07T15:59:43.160Z,4.47
2019-05-07T16:02:23.416Z,6.10
2019-05-07T16:04:52.985Z,7.17
2019-05-07T16:07:22.793Z,6.37
2019-05-07T16:09:52.719Z,6.73
2019-05-07T16:12:22.799Z,3.57
2019-05-07T16:14:52.624Z,4.07
2019-05-07T16:17:33.006Z,6.53
2019-05-07T16:20:03.121Z,5.33
2019-05-07T16:22:37.197Z,6.77
2019-05-07T16:25:07.535Z,4.97
2019-05-07T16:27:42.696Z,4.60
2019-05-07T16:30:14.310Z,10.03
2019-05-07T16:32:47.324Z,4.13
2019-05-07T16:35:17.215Z,9.60
2019-05-07T16:37:47.024Z,6.27
2019-05-07T16:40:16.706Z,6.40
2019-05-07T16:42:46.202Z,4.33
2019-05-07T16:45:16.254Z,5.87
2019-05-07T16:47:46.019Z,6.07
2019-05-07T16:50:18.006Z,13.77
2019-05-07T16:52:48.331Z,4.60
2019-05-07T16:55:18.118Z,5.40
2019-05-07T16:58:20.644Z,6.77
2019-05-07T17:00:52.916Z,6.17
2019-05-07T17:03:31.949Z,15.73
2019-05-07T17:06:01.804Z,8.07
2019-05-07T17:08:45.033Z,5.60
2019-05-07T17:11:14.596Z,6.77
2019-05-07T17:13:44.229Z,5.60
2019-05-07T17:16:14.003Z,5.10
2019-05-07T17:18:43.729Z,4.63
2019-05-07T17:21:13.384Z,5.73
2019-05-07T17:23:44.672Z,5.07
2019-05-07T17:26:14.942Z,6.53
2019-05-07T17:28:44.838Z,5.00
2019-05-07T17:31:14.541Z,5.57
2019-05-07T17:33:44.304Z,5.30
2019-05-07T17:36:13.994Z,7.53
2019-05-07T17:38:43.899Z,6.37
2019-05-07T17:41:20.414Z,7.80
2019-05-07T17:43:45.776Z,5.73
2019-05-07T17:46:15.414Z,4.73
2019-05-07T17:48:45.087Z,5.83
2019-05-07T17:51:33.960Z,5.17
2019-05-07T17:54:04.040Z,5.60
2019-05-07T17:56:33.853Z,34.17
2019-05-07T17:59:03.762Z,8.27
2019-05-07T18:01:54.191Z,13.97
2019-05-07T18:04:24.211Z,5.60
2019-05-07T18:06:54.333Z,5.90
2019-05-07T18:09:24.181Z,6.90
2019-05-07T18:11:54.032Z,4.33
2019-05-07T18:14:23.771Z,6.07
2019-05-07T18:17:08.074Z,4.90
2019-05-07T18:19:38.070Z,7.37
2019-05-07T18:22:07.543Z,7.53
2019-05-07T18:24:37.031Z,7.60
2019-05-07T18:27:08.360Z,8.60
2019-05-07T18:29:37.255Z,8.70
2019-05-07T18:32:07.500Z,12.70
2019-05-07T18:34:37.677Z,8.30
2019-05-07T18:37:07.606Z,5.40
2019-05-07T18:39:37.636Z,6.57
2019-05-07T18:42:07.485Z,8.23
2019-05-07T18:44:37.918Z,6.70
2019-05-07T18:47:07.397Z,4.93
2019-05-07T18:49:37.765Z,5.87
2019-05-07T18:52:07.987Z,7.20
2019-05-07T18:54:37.144Z,13.50
2019-05-07T18:57:07.152Z,7.93
2019-05-07T18:59:37.331Z,7.20
2019-05-07T19:02:07.447Z,6.77
2019-05-07T19:04:36.945Z,9.03
2019-05-07T19:07:06.648Z,5.83
2019-05-07T19:09:36.222Z,5.87
2019-05-07T19:12:07.035Z,10.50
2019-05-07T19:14:36.848Z,9.03
2019-05-07T19:17:06.429Z,9.60
2019-05-07T19:19:36.217Z,7.23
2019-05-07T19:22:06.612Z,8.10
2019-05-07T19:24:45.330Z,10.17
2019-05-07T19:27:07.641Z,8.60
2019-05-07T19:29:37.484Z,6.90
2019-05-07T19:32:08.993Z,6.97
2019-05-07T19:34:41.690Z,6.53
2019-05-07T19:37:10.869Z,9.33
2019-05-07T19:39:42.760Z,10.27
2019-05-07T19:42:12.199Z,11.03
2019-05-07T19:44:42.396Z,9.57
2019-05-07T19:47:12.751Z,13.07
2019-05-07T19:49:45.779Z,5.70
2019-05-07T19:52:15.602Z,6.73
2019-05-07T19:54:57.856Z,8.77
2019-05-07T19:57:23.120Z,9.70
2019-05-07T19:59:53.230Z,9.00
2019-05-07T20:02:27.108Z,13.23
2019-05-07T20:04:58.648Z,16.17
2019-05-07T20:07:28.085Z,13.77
2019-05-07T20:09:56.929Z,12.10
2019-05-07T20:12:26.499Z,8.33
2019-05-07T20:14:56.107Z,11.07
2019-05-07T20:17:26.254Z,25.57
2019-05-07T20:19:56.230Z,19.83
2019-05-07T20:22:25.951Z,12.17
2019-05-07T20:24:56.611Z,7.33
2019-05-07T20:27:26.291Z,13.03
2019-05-07T20:29:56.307Z,10.50
2019-05-07T20:32:26.117Z,10.27
2019-05-07T20:34:55.860Z,9.40
2019-05-07T20:37:25.418Z,9.27
2019-05-07T20:39:55.057Z,10.30
2019-05-07T20:42:26.225Z,13.87
2019-05-07T20:44:56.366Z,11.80
2019-05-07T20:47:26.060Z,16.70
2019-05-07T20:49:55.667Z,12.57
2019-05-07T20:52:25.295Z,10.87
2019-05-07T20:55:26.573Z,9.37
2019-05-07T20:57:45.446Z,15.17
2019-05-07T21:00:22.900Z,10.97
2019-05-07T21:03:12.534Z,8.13
2019-05-07T21:05:42.422Z,9.47
2019-05-07T21:08:12.455Z,8.87
2019-05-07T21:10:42.732Z,11.80
2019-05-07T21:13:26.780Z,9.20
2019-05-07T21:15:44.235Z,10.20
2019-05-07T21:18:14.646Z,9.03
2019-05-07T21:20:44.572Z,8.00
2019-05-07T21:23:14.306Z,8.90
2019-05-07T21:25:46.013Z,12.23
2019-05-07T21:28:16.008Z,16.63
2019-05-07T21:30:45.618Z,6.97
2019-05-07T21:33:16.413Z,17.53
2019-05-07T21:35:46.773Z,7.50
2019-05-07T21:38:16.599Z,10.20
2019-05-07T21:40:46.323Z,11.63
2019-05-07T21:43:16.321Z,7.57
2019-05-07T21:45:46.343Z,12.10
2019-05-07T21:48:16.350Z,8.30
2019-05-07T21:50:47.516Z,7.03
2019-05-07T21:53:42.967Z,7.13
2019-05-07T21:56:31.515Z,7.63
2019-05-07T21:59:04.572Z,9.30
2019-05-07T22:01:56.944Z,13.00
2019-05-07T22:04:27.241Z,12.20
2019-05-07T22:06:57.433Z,7.47
2019-05-07T22:09:27.109Z,6.40
2019-05-07T22:11:56.932Z,12.20
2019-05-07T22:14:26.712Z,10.20
2019-05-07T22:16:56.255Z,25.60
2019-05-07T22:19:26.057Z,8.17
2019-05-07T22:21:56.315Z,11.50
2019-05-07T22:24:25.956Z,15.63
2019-05-07T22:26:55.530Z,10.27
2019-05-07T22:29:25.417Z,8.70
2019-05-07T22:32:05.888Z,7.43
2019-05-07T22:35:03.501Z,7.00
2019-05-07T22:37:33.344Z,6.10
2019-05-07T22:40:03.061Z,7.53
2019-05-07T22:42:32.828Z,6.80
2019-05-07T22:45:03.426Z,11.68
2019-05-07T22:47:33.012Z,7.83
2019-05-07T22:50:02.996Z,7.10
2019-05-07T22:52:35.651Z,8.43
2019-05-07T22:55:05.333Z,9.93
2019-05-07T22:57:52.753Z,8.43
2019-05-07T23:00:32.178Z,7.40
2019-05-07T23:03:02.703Z,9.43
2019-05-07T23:05:32.718Z,11.25
2019-05-07T23:08:02.567Z,7.00
2019-05-07T23:10:33.252Z,8.10
2019-05-07T23:13:03.323Z,8.77
2019-05-07T23:15:32.805Z,9.05
2019-05-07T23:18:04.411Z,5.53
2019-05-07T23:20:34.111Z,8.90
2019-05-07T23:23:03.777Z,11.45
2019-05-07T23:25:33.878Z,7.00
2019-05-07T23:28:05.221Z,8.70
2019-05-07T23:30:34.937Z,7.45
2019-05-07T23:33:04.514Z,7.20
2019-05-07T23:35:34.265Z,6.05
2019-05-07T23:38:03.816Z,6.65
2019-05-07T23:40:58.345Z,5.67
2019-05-07T23:43:28.264Z,10.98
2019-05-07T23:45:57.864Z,8.83
2019-05-07T23:48:28.236Z,6.03
2019-05-07T23:50:58.004Z,7.55
2019-05-07T23:53:27.930Z,6.05
2019-05-07T23:55:57.728Z,7.53
2019-05-07T23:58:28.166Z,6.85
